createdAt,value
2022-08-05T14:55:40.370Z,73.49
2022-08-05T14:58:27.027Z,74.60
2022-08-05T15:01:24.225Z,75.71
2022-08-05T15:04:27.398Z,75.18
2022-08-05T15:08:09.113Z,76.44
2022-08-05T15:10:28.654Z,77.00
2022-08-05T15:13:19.148Z,77.35
2022-08-05T15:16:15.408Z,77.50
2022-08-05T15:19:03.747Z,77.97
2022-08-05T15:21:50.608Z,77.25
2022-08-05T15:24:39.736Z,79.85
2022-08-05T15:27:26.637Z,80.69
2022-08-05T15:30:24.007Z,82.57
2022-08-05T15:33:10.555Z,82.27
2022-08-05T15:35:59.264Z,82.92
2022-08-05T15:38:50.601Z,81.87
2022-08-05T15:41:59.051Z,82.81
2022-08-05T15:44:46.114Z,83.56
2022-08-05T15:47:35.706Z,82.54
2022-08-05T15:50:25.193Z,84.57
2022-08-05T15:53:12.707Z,85.53
2022-08-05T15:56:02.634Z,84.15
2022-08-05T15:58:50.962Z,84.70
2022-08-05T16:01:39.805Z,86.09
2022-08-05T16:04:40.809Z,87.57
2022-08-05T16:07:29.622Z,89.90
2022-08-05T16:10:16.681Z,90.59
2022-08-05T16:13:09.959Z,91.19
2022-08-05T16:15:57.677Z,90.13
2022-08-05T16:18:52.451Z,90.07
2022-08-05T16:21:58.576Z,90.18
2022-08-05T16:24:51.680Z,89.45
2022-08-05T16:28:00.195Z,89.22
2022-08-05T16:30:46.291Z,88.45
2022-08-05T16:33:41.622Z,89.13
2022-08-05T16:36:28.725Z,90.15
2022-08-05T16:39:17.196Z,91.18
2022-08-05T16:42:14.655Z,91.38
2022-08-05T16:46:02.911Z,92.12
2022-08-05T16:48:11.659Z,93.31
2022-08-05T16:51:12.388Z,93.09
2022-08-05T16:54:10.652Z,92.64
2022-08-05T16:57:17.939Z,94.13
2022-08-05T17:00:12.032Z,95.02
2022-08-05T17:03:02.911Z,93.98
2022-08-05T17:08:55.232Z,95.50
2022-08-05T17:11:48.438Z,96.88
2022-08-05T17:14:38.350Z,100.00
2022-08-05T17:17:42.047Z,100.00
2022-08-05T17:20:30.036Z,100.00
2022-08-05T17:24:03.581Z,100.00
2022-08-05T17:26:23.062Z,100.00
2022-08-05T17:29:10.418Z,100.00
2022-08-05T17:31:59.376Z,100.00
2022-08-05T17:34:48.226Z,100.00
2022-08-05T17:37:40.280Z,100.00
2022-08-05T17:40:31.666Z,100.00
2022-08-05T17:43:18.464Z,100.00
2022-08-05T17:46:25.101Z,100.00
2022-08-05T17:49:13.180Z,100.00
2022-08-05T17:52:01.457Z,100.00
2022-08-05T17:54:48.275Z,100.00
2022-08-05T17:57:35.107Z,100.00
2022-08-05T18:00:29.512Z,100.00
2022-08-05T18:03:56.315Z,100.00
2022-08-05T18:06:29.434Z,100.00
2022-08-05T18:09:59.161Z,100.00
2022-08-05T18:12:34.963Z,100.00
2022-08-05T18:15:22.034Z,100.00
2022-08-05T18:18:11.298Z,100.00
2022-08-05T18:20:58.361Z,100.00
2022-08-05T18:23:49.482Z,100.00
2022-08-05T18:26:40.643Z,100.00
2022-08-05T18:29:40.923Z,100.00
2022-08-05T18:32:29.674Z,100.00
2022-08-05T18:35:17.238Z,100.00
2022-08-05T18:38:04.912Z,100.00
2022-08-05T18:41:57.573Z,100.00
2022-08-05T18:44:06.312Z,100.00
2022-08-05T18:46:54.709Z,100.00
2022-08-05T18:50:00.538Z,100.00
2022-08-05T18:52:51.199Z,100.00
2022-08-05T18:55:38.461Z,100.00
2022-08-05T18:58:47.408Z,100.00
2022-08-05T19:01:47.963Z,100.00
2022-08-05T19:05:01.005Z,100.00
2022-08-05T19:07:50.851Z,100.00
2022-08-05T19:10:38.308Z,100.00
2022-08-05T19:13:24.996Z,100.00
2022-08-05T19:16:25.293Z,100.00
2022-08-05T19:19:15.776Z,100.00
2022-08-05T19:22:07.540Z,100.00
2022-08-05T19:25:00.707Z,100.00
2022-08-05T19:27:49.787Z,100.00
2022-08-05T19:30:38.633Z,100.00
2022-08-05T19:33:35.272Z,100.00
2022-08-05T19:36:22.773Z,100.00
2022-08-05T19:39:09.573Z,100.00
2022-08-05T19:42:06.102Z,100.00
2022-08-05T19:44:55.591Z,100.00
2022-08-05T19:47:42.586Z,100.00
2022-08-05T19:50:31.379Z,100.00
2022-08-05T19:54:04.306Z,100.00
2022-08-05T19:56:29.742Z,100.00
2022-08-05T19:59:53.842Z,100.00
2022-08-05T20:02:26.342Z,100.00
2022-08-05T20:05:16.627Z,100.00
2022-08-05T20:08:12.838Z,100.00
2022-08-05T20:11:01.308Z,100.00
2022-08-05T20:13:58.058Z,100.00
2022-08-05T20:16:46.438Z,100.00
2022-08-05T20:19:36.103Z,100.00
2022-08-05T20:22:48.906Z,100.00
2022-08-05T20:25:39.683Z,100.00
2022-08-05T20:28:27.472Z,100.00
2022-08-05T20:31:14.422Z,100.00
2022-08-05T20:34:03.616Z,100.00
2022-08-05T20:36:51.067Z,100.00
2022-08-05T20:39:38.191Z,100.00
2022-08-05T20:42:28.360Z,100.00
2022-08-05T20:45:15.160Z,100.00
2022-08-05T20:48:02.696Z,100.00
2022-08-05T20:50:49.740Z,100.00
2022-08-05T20:53:41.039Z,100.00
2022-08-05T20:56:34.141Z,100.00
2022-08-05T20:59:46.095Z,100.00
2022-08-05T21:02:39.576Z,100.00
2022-08-05T21:05:53.372Z,100.00
2022-08-05T21:08:43.987Z,100.00
2022-08-05T21:12:06.623Z,100.00
2022-08-05T21:14:39.106Z,100.00
2022-08-05T21:17:27.124Z,100.00
2022-08-05T21:20:15.404Z,100.00
2022-08-05T21:23:20.184Z,100.00
2022-08-05T21:26:14.251Z,100.00
2022-08-05T21:29:03.610Z,100.00
2022-08-05T21:31:52.194Z,100.00
2022-08-05T21:34:38.836Z,100.00
2022-08-05T21:37:28.196Z,100.00
2022-08-05T21:40:16.599Z,100.00
2022-08-05T21:43:05.649Z,100.00
2022-08-05T21:45:57.787Z,100.00
2022-08-05T21:48:48.743Z,100.00
2022-08-05T21:52:21.871Z,100.00
2022-08-05T21:54:42.421Z,100.00
2022-08-05T21:57:31.336Z,100.00
2022-08-05T22:00:19.530Z,100.00
2022-08-05T22:03:06.327Z,100.00
2022-08-05T22:05:58.189Z,100.00
2022-08-05T22:08:44.870Z,100.00
2022-08-05T22:11:38.302Z,100.00
2022-08-05T22:14:35.767Z,100.00
2022-08-05T22:17:25.362Z,100.00
2022-08-05T22:20:15.541Z,100.00
2022-08-05T22:23:22.166Z,100.00
2022-08-05T22:26:27.327Z,100.00
2022-08-05T22:29:17.598Z,100.00
2022-08-05T22:32:06.473Z,100.00
2022-08-05T22:34:56.900Z,100.00
2022-08-05T22:37:58.683Z,100.00
2022-08-05T22:40:50.034Z,100.00
2022-08-05T22:43:41.873Z,100.00
2022-08-05T22:46:29.084Z,100.00
2022-08-05T22:50:17.275Z,100.00
2022-08-05T22:52:32.609Z,100.00
2022-08-05T22:55:22.569Z,100.00
2022-08-05T22:58:18.582Z,100.00
2022-08-05T23:01:15.673Z,100.00
2022-08-05T23:04:02.622Z,100.00
2022-08-05T23:06:49.500Z,100.00
2022-08-05T23:09:57.436Z,100.00
2022-08-05T23:12:43.862Z,100.00
2022-08-05T23:15:35.286Z,100.00
2022-08-05T23:18:24.512Z,100.00
2022-08-05T23:21:12.893Z,100.00
2022-08-05T23:24:03.868Z,100.00
2022-08-05T23:26:58.402Z,100.00
2022-08-05T23:29:47.720Z,100.00
2022-08-05T23:32:45.100Z,100.00
2022-08-05T23:35:34.202Z,100.00
2022-08-05T23:38:21.082Z,100.00
2022-08-05T23:41:07.718Z,100.00
2022-08-05T23:44:06.146Z,100.00
2022-08-05T23:46:59.325Z,100.00
2022-08-05T23:49:55.737Z,100.00
2022-08-05T23:52:49.517Z,100.00
2022-08-05T23:55:37.467Z,100.00
2022-08-05T23:58:32.022Z,100.00
